RKTU/CHN METAR and TAF weather

Enter ICAO airport designator
Station Type Date Time Source
RKTU METAR 2019/04/25 11:32 UTC NOAA

RKTU 251132Z 21002KT 6000 -RA SCT015 OVC030 14/12 Q1007 RMK CIG030


Station Type Date Time Source
RKTU Decoded METAR 2019/04/25 11:32 UTC NOAA

Chongju Ab, Korea, South (RKTU) 36-42N 127-30E 66M
Apr 25, 2019 - 07:32 AM EDT / 2019.04.25 1132 UTC
Wind: from the SSW (210 degrees) at 2 MPH (2 KT):0
Visibility: 3 mile(s):0
Sky conditions: overcast
Weather: light rain
Temperature: 57 F (14 C)
Dew Point: 53 F (12 C)
Relative Humidity: 87%
Pressure (altimeter): 29.74 in. Hg (1007 hPa)
ob: RKTU 251132Z 21002KT 6000 -RA SCT015 OVC030 14/12 Q1007 RMK CIG030
cycle: 11

Station Type Date Time Source
RKTU TAF 2019/04/25 12:09 UTC NOAA

TAF RKTU 251100Z 2512/2618 18006KT 4800 BR SCT015 BKN030 TN09/2521Z TX14/2606Z
BECMG 2512/2513 24006KT -RA BR
BECMG 2517/2518 03006KT 1600 BR BKN015 OVC030
BECMG 2523/2524 4800 SCT015 BKN030

Example: see airport list